createdAt,value
2022-10-11T00:01:48.060Z,7.93
2022-10-11T00:04:14.792Z,7.91
2022-10-11T00:06:43.643Z,7.91
2022-10-11T00:09:14.903Z,7.91
2022-10-11T00:11:42.149Z,7.88
2022-10-11T00:14:08.892Z,7.76
2022-10-11T00:16:35.868Z,7.68
2022-10-11T00:19:02.624Z,7.67
2022-10-11T00:21:30.670Z,7.62
2022-10-11T00:23:57.420Z,7.63
2022-10-11T00:26:24.137Z,7.64
2022-10-11T00:28:52.738Z,7.64
2022-10-11T00:31:20.471Z,7.60
2022-10-11T00:33:47.469Z,7.66
2022-10-11T00:36:16.792Z,7.68
2022-10-11T00:38:44.691Z,7.63
2022-10-11T00:41:11.941Z,7.73
2022-10-11T00:43:38.907Z,7.72
2022-10-11T00:46:13.595Z,7.69
2022-10-11T00:48:46.019Z,7.69
2022-10-11T00:51:21.035Z,7.67
2022-10-11T00:53:50.809Z,7.62
2022-10-11T00:56:23.816Z,7.69
2022-10-11T00:58:51.038Z,7.70
2022-10-11T01:01:17.699Z,7.75
2022-10-11T01:03:44.979Z,7.74
2022-10-11T01:06:11.655Z,7.76
2022-10-11T01:08:38.880Z,7.74
2022-10-11T01:11:05.824Z,7.81
2022-10-11T01:13:38.113Z,7.85
2022-10-11T01:16:29.960Z,7.88
2022-10-11T01:19:14.536Z,7.91
2022-10-11T01:21:52.199Z,7.92
2022-10-11T01:24:53.039Z,7.90
2022-10-11T01:27:45.221Z,7.88
2022-10-11T01:30:31.780Z,7.83
2022-10-11T01:33:04.272Z,7.75
2022-10-11T01:35:35.517Z,7.62
2022-10-11T01:38:18.082Z,7.71
2022-10-11T01:40:56.460Z,7.74
2022-10-11T01:43:24.627Z,7.76
2022-10-11T01:45:55.191Z,7.80
2022-10-11T01:48:22.028Z,7.76
2022-10-11T01:50:58.612Z,7.84
2022-10-11T01:54:04.241Z,7.80
2022-10-11T01:56:55.254Z,7.80
2022-10-11T01:59:28.563Z,7.74
2022-10-11T02:01:58.213Z,7.68
2022-10-11T02:04:36.192Z,7.62
2022-10-11T02:07:33.669Z,7.51
2022-10-11T02:10:24.661Z,7.46
2022-10-11T02:13:02.421Z,7.48
2022-10-11T02:15:32.889Z,7.42
2022-10-11T02:18:03.325Z,7.35
2022-10-11T02:20:33.706Z,7.29
2022-10-11T02:23:08.145Z,7.24
2022-10-11T02:25:36.515Z,7.19
2022-10-11T02:28:11.344Z,7.17
2022-10-11T02:30:42.117Z,7.24
2022-10-11T02:33:13.125Z,7.29
2022-10-11T02:35:47.224Z,7.37
2022-10-11T02:38:24.942Z,7.38
2022-10-11T02:41:01.221Z,7.43
2022-10-11T02:43:41.590Z,7.48
2022-10-11T02:46:09.998Z,7.51
2022-10-11T02:48:37.511Z,7.54
2022-10-11T02:51:04.920Z,7.49
2022-10-11T02:53:32.332Z,7.49
2022-10-11T02:55:59.129Z,7.40
2022-10-11T02:58:25.926Z,7.48
2022-10-11T03:00:52.642Z,7.46
2022-10-11T03:03:19.368Z,7.45
2022-10-11T03:05:46.141Z,7.44
2022-10-11T03:08:14.487Z,7.50
2022-10-11T03:10:41.984Z,7.54
2022-10-11T03:13:09.075Z,7.58
2022-10-11T03:15:35.856Z,7.55
2022-10-11T03:18:02.576Z,7.55
2022-10-11T03:20:29.268Z,7.55
2022-10-11T03:22:56.007Z,7.55
2022-10-11T03:25:22.676Z,7.55
2022-10-11T03:27:49.391Z,7.58
2022-10-11T03:30:18.290Z,7.48
2022-10-11T03:32:45.562Z,7.59
2022-10-11T03:35:12.428Z,7.55
2022-10-11T03:37:39.131Z,7.59
2022-10-11T03:40:08.405Z,7.62
2022-10-11T03:42:36.048Z,7.56
2022-10-11T03:45:05.110Z,7.58
2022-10-11T03:47:32.323Z,7.55
2022-10-11T03:49:59.020Z,7.53
2022-10-11T03:52:25.764Z,7.53
2022-10-11T03:54:52.690Z,7.53
2022-10-11T03:57:19.643Z,7.48
2022-10-11T03:59:46.373Z,7.43
2022-10-11T04:02:13.209Z,7.43
2022-10-11T04:04:40.001Z,7.44
2022-10-11T04:07:06.703Z,7.46
2022-10-11T04:09:33.655Z,7.49
2022-10-11T04:12:00.900Z,7.51
2022-10-11T04:14:27.451Z,7.51
2022-10-11T04:16:56.420Z,7.42
2022-10-11T04:19:26.733Z,7.43
2022-10-11T04:21:53.425Z,7.43
2022-10-11T04:24:20.342Z,7.44
2022-10-11T04:26:47.113Z,7.42
2022-10-11T04:29:13.966Z,7.47
2022-10-11T04:31:40.667Z,7.54
2022-10-11T04:34:07.376Z,7.59
2022-10-11T04:36:34.112Z,7.62
2022-10-11T04:39:01.714Z,7.67
2022-10-11T04:41:29.422Z,7.61
2022-10-11T04:43:56.227Z,7.58
2022-10-11T04:46:23.531Z,7.71
2022-10-11T04:48:50.601Z,7.75
2022-10-11T04:51:17.857Z,7.80
2022-10-11T04:53:44.609Z,7.87
2022-10-11T04:56:12.096Z,7.87
2022-10-11T04:58:41.011Z,7.94
2022-10-11T05:01:09.044Z,7.89
2022-10-11T05:03:36.148Z,7.89
2022-10-11T05:06:05.926Z,7.89
2022-10-11T05:08:34.304Z,7.94
2022-10-11T05:11:04.134Z,7.91
2022-10-11T05:13:32.391Z,7.95
2022-10-11T05:15:59.743Z,7.97
2022-10-11T05:18:27.333Z,7.95
2022-10-11T05:21:21.292Z,7.93
2022-10-11T05:23:49.981Z,7.91
2022-10-11T05:26:18.107Z,7.97
2022-10-11T05:28:45.305Z,8.06
2022-10-11T05:31:12.528Z,8.12
2022-10-11T05:33:39.333Z,8.16
2022-10-11T05:36:07.524Z,8.20
2022-10-11T05:38:35.006Z,8.18
2022-10-11T05:41:02.478Z,8.36
2022-10-11T05:43:30.041Z,8.46
2022-10-11T05:45:57.682Z,8.48
2022-10-11T05:48:26.699Z,8.56
2022-10-11T05:50:58.405Z,8.67
2022-10-11T05:53:25.111Z,8.71
2022-10-11T05:55:51.792Z,8.73
2022-10-11T05:58:18.876Z,8.73
2022-10-11T06:00:45.594Z,8.73
2022-10-11T06:03:13.186Z,8.81
2022-10-11T06:05:40.139Z,8.80
2022-10-11T06:08:08.708Z,8.94
2022-10-11T06:10:36.200Z,9.10
2022-10-11T06:13:03.035Z,9.17
2022-10-11T06:15:29.876Z,9.28
2022-10-11T06:17:56.612Z,9.30
2022-10-11T06:20:23.411Z,9.38
2022-10-11T06:22:50.129Z,9.43
2022-10-11T06:25:16.838Z,9.49
2022-10-11T06:27:43.541Z,9.51
2022-10-11T06:30:10.603Z,9.56
2022-10-11T06:32:37.732Z,9.64
2022-10-11T06:35:05.628Z,9.71
2022-10-11T06:37:32.412Z,9.75
2022-10-11T06:39:59.117Z,9.86
2022-10-11T06:42:25.844Z,9.90
2022-10-11T06:44:52.563Z,10.10
2022-10-11T06:47:19.268Z,10.31
2022-10-11T06:49:45.982Z,10.46
2022-10-11T06:52:12.739Z,10.80
2022-10-11T06:54:44.577Z,11.17
2022-10-11T06:57:11.936Z,11.66
2022-10-11T06:59:38.618Z,11.99
2022-10-11T07:02:05.352Z,12.46
2022-10-11T07:04:33.856Z,12.76
2022-10-11T07:07:00.783Z,13.14
2022-10-11T07:09:27.505Z,13.36
2022-10-11T07:11:54.228Z,13.56
2022-10-11T07:14:20.925Z,13.86
2022-10-11T07:16:47.628Z,14.29
2022-10-11T07:19:14.385Z,14.67
2022-10-11T07:21:41.244Z,14.91
2022-10-11T07:24:08.096Z,14.50
2022-10-11T07:26:38.907Z,14.71
2022-10-11T07:29:08.001Z,15.22
2022-10-11T07:31:39.929Z,15.71
2022-10-11T07:34:07.132Z,15.81
2022-10-11T07:36:34.555Z,15.91
2022-10-11T07:39:04.799Z,16.22
2022-10-11T07:41:31.489Z,15.65
2022-10-11T07:43:58.268Z,15.60
2022-10-11T07:46:25.025Z,15.44
2022-10-11T07:48:51.750Z,15.63
2022-10-11T07:51:21.434Z,15.67
2022-10-11T07:53:50.641Z,15.34
2022-10-11T07:56:27.732Z,15.01
2022-10-11T07:59:00.301Z,15.00
2022-10-11T08:01:28.536Z,14.88
2022-10-11T08:03:56.947Z,14.71
2022-10-11T08:06:29.217Z,14.52
2022-10-11T08:08:56.888Z,14.46
2022-10-11T08:11:29.737Z,14.48
2022-10-11T08:13:58.036Z,14.72
2022-10-11T08:16:25.205Z,14.95
2022-10-11T08:18:52.034Z,15.05
2022-10-11T08:21:19.218Z,15.05
2022-10-11T08:23:46.240Z,14.94
2022-10-11T08:26:13.236Z,15.41
2022-10-11T08:28:40.044Z,15.34
2022-10-11T08:31:07.196Z,15.76
2022-10-11T08:33:33.799Z,16.20
2022-10-11T08:36:05.163Z,16.00
2022-10-11T08:38:32.267Z,16.26
2022-10-11T08:41:32.756Z,16.70
2022-10-11T08:44:17.667Z,16.63
2022-10-11T08:46:50.543Z,16.66
2022-10-11T08:49:19.881Z,17.00
2022-10-11T08:51:52.635Z,17.39
2022-10-11T08:54:31.272Z,17.76
2022-10-11T08:56:58.024Z,17.77
2022-10-11T08:59:41.160Z,17.78
2022-10-11T09:02:55.677Z,18.13
2022-10-11T09:05:25.642Z,18.13
2022-10-11T09:08:14.758Z,18.16
2022-10-11T09:10:44.150Z,18.41
2022-10-11T09:13:41.564Z,18.80
2022-10-11T09:16:49.484Z,19.10
2022-10-11T09:19:53.485Z,19.36
2022-10-11T09:22:34.395Z,19.69
2022-10-11T09:25:19.397Z,19.76
2022-10-11T09:28:04.267Z,19.79
2022-10-11T09:30:33.020Z,19.89
2022-10-11T09:33:17.355Z,19.89
2022-10-11T09:35:50.991Z,19.92
2022-10-11T09:38:36.714Z,20.14
2022-10-11T09:41:25.220Z,20.46
2022-10-11T09:43:52.746Z,20.55
2022-10-11T09:46:34.726Z,20.65
2022-10-11T09:49:04.642Z,20.78
2022-10-11T09:51:31.716Z,20.77
2022-10-11T09:54:05.001Z,21.28
2022-10-11T09:56:34.677Z,21.29
2022-10-11T09:59:28.970Z,21.10
2022-10-11T10:02:26.607Z,20.33
2022-10-11T10:04:57.654Z,20.39
2022-10-11T10:07:24.994Z,20.35
2022-10-11T10:09:53.109Z,20.01
2022-10-11T10:12:24.232Z,20.28
2022-10-11T10:15:17.740Z,20.57
2022-10-11T10:17:52.198Z,20.70
2022-10-11T10:20:25.391Z,20.88
2022-10-11T10:22:52.639Z,20.95
2022-10-11T10:25:43.371Z,21.08
2022-10-11T10:28:23.334Z,21.19
2022-10-11T10:30:55.378Z,21.14
2022-10-11T10:33:24.821Z,21.06
2022-10-11T10:35:58.377Z,21.09
2022-10-11T10:38:38.656Z,21.15
2022-10-11T10:41:10.954Z,21.15
2022-10-11T10:43:40.556Z,21.18
2022-10-11T10:46:22.561Z,21.24
2022-10-11T10:52:37.593Z,21.02
2022-10-11T10:55:12.771Z,21.02
2022-10-11T10:57:59.372Z,20.99
2022-10-11T11:00:30.533Z,21.06
2022-10-11T11:03:05.737Z,20.97
2022-10-11T11:05:53.778Z,20.99
2022-10-11T11:08:39.222Z,21.08
2022-10-11T11:11:23.904Z,21.16
2022-10-11T11:14:23.171Z,21.20
2022-10-11T11:17:08.510Z,21.23
2022-10-11T11:19:53.353Z,21.24
2022-10-11T11:22:22.627Z,21.32
2022-10-11T11:25:01.308Z,21.43
2022-10-11T11:27:42.039Z,21.50
2022-10-11T11:30:27.221Z,21.52
2022-10-11T11:33:12.116Z,21.61
2022-10-11T11:35:46.299Z,21.62
2022-10-11T11:38:37.816Z,21.65
2022-10-11T11:41:13.333Z,21.85
2022-10-11T11:43:53.455Z,21.94
2022-10-11T11:46:29.398Z,21.98
2022-10-11T11:49:00.413Z,21.94
2022-10-11T11:51:41.503Z,21.98
2022-10-11T11:54:35.610Z,21.86
2022-10-11T11:57:24.191Z,21.55
2022-10-11T12:00:19.866Z,21.34
2022-10-11T12:02:52.672Z,21.51
2022-10-11T12:05:24.873Z,22.08
2022-10-11T12:07:54.717Z,22.63
2022-10-11T12:10:28.817Z,22.96
2022-10-11T12:13:08.439Z,23.28
2022-10-11T12:15:36.558Z,23.39
2022-10-11T12:18:12.825Z,23.48
2022-10-11T12:20:41.746Z,23.11
2022-10-11T12:23:30.348Z,22.98
2022-10-11T12:26:18.044Z,22.72
2022-10-11T12:29:00.346Z,22.60
2022-10-11T12:31:35.733Z,22.61
2022-10-11T12:34:02.446Z,22.81
2022-10-11T12:36:29.721Z,23.23
2022-10-11T12:39:18.210Z,23.89
2022-10-11T12:41:47.629Z,24.26
2022-10-11T12:44:28.754Z,24.55
2022-10-11T12:46:55.645Z,24.95
2022-10-11T12:49:33.997Z,24.99
2022-10-11T12:52:04.246Z,25.20
2022-10-11T12:54:45.989Z,24.96
2022-10-11T12:57:34.478Z,25.27
2022-10-11T13:00:17.978Z,25.16
2022-10-11T13:02:44.883Z,25.11
2022-10-11T13:05:23.451Z,24.29
2022-10-11T13:07:53.183Z,23.71
2022-10-11T13:10:42.482Z,23.10
2022-10-11T13:13:29.267Z,23.13
2022-10-11T13:15:59.043Z,23.42
2022-10-11T13:18:26.515Z,23.50
2022-10-11T13:20:53.389Z,23.65
2022-10-11T13:23:30.013Z,23.74
2022-10-11T13:25:56.868Z,23.82
2022-10-11T13:28:24.010Z,24.17
2022-10-11T13:30:56.303Z,24.17
2022-10-11T13:33:32.110Z,24.34
2022-10-11T13:36:04.675Z,24.41
2022-10-11T13:38:35.195Z,24.47
2022-10-11T13:41:05.201Z,24.22
2022-10-11T13:43:32.809Z,24.06
2022-10-11T13:46:08.939Z,23.85
2022-10-11T13:48:42.949Z,23.42
2022-10-11T13:51:17.923Z,23.05
2022-10-11T13:54:03.799Z,22.85
2022-10-11T13:56:36.034Z,22.77
2022-10-11T13:59:03.303Z,22.81
2022-10-11T14:01:44.020Z,22.59
2022-10-11T14:04:13.457Z,22.50
2022-10-11T14:06:49.224Z,22.56
2022-10-11T14:09:27.089Z,22.95
2022-10-11T14:11:54.494Z,23.29
2022-10-11T14:14:33.212Z,23.54
2022-10-11T14:17:14.464Z,23.75
2022-10-11T14:19:42.656Z,23.71
2022-10-11T14:22:16.399Z,23.74
2022-10-11T14:24:47.319Z,24.03
2022-10-11T14:27:19.423Z,24.29
2022-10-11T14:30:00.571Z,24.37
2022-10-11T14:32:34.807Z,24.51
2022-10-11T14:35:01.555Z,24.46
2022-10-11T14:37:28.268Z,24.52
2022-10-11T14:39:54.968Z,24.31
2022-10-11T14:42:21.664Z,24.20
2022-10-11T14:44:48.345Z,23.91
2022-10-11T14:47:16.843Z,23.75
2022-10-11T14:49:43.708Z,23.41
2022-10-11T14:52:11.809Z,23.20
2022-10-11T14:54:38.666Z,23.03
2022-10-11T14:57:08.351Z,22.82
2022-10-11T14:59:37.765Z,22.82
2022-10-11T15:02:07.258Z,22.78
2022-10-11T15:04:34.412Z,22.69
2022-10-11T15:07:01.628Z,22.79
2022-10-11T15:09:28.695Z,22.74
2022-10-11T15:11:55.468Z,22.55
2022-10-11T15:14:24.017Z,22.38
2022-10-11T15:16:51.715Z,22.34
2022-10-11T15:19:21.928Z,22.33
2022-10-11T15:21:49.491Z,22.27
2022-10-11T15:24:16.591Z,22.23
2022-10-11T15:26:44.049Z,22.21
2022-10-11T15:29:12.703Z,22.12
2022-10-11T15:31:39.756Z,21.93
2022-10-11T15:34:06.553Z,21.75
2022-10-11T15:36:33.316Z,21.46
2022-10-11T15:39:00.054Z,21.18
2022-10-11T15:41:26.868Z,20.93
2022-10-11T15:43:53.700Z,20.70
2022-10-11T15:46:22.785Z,20.50
2022-10-11T15:48:51.859Z,20.32
2022-10-11T15:51:18.678Z,20.20
2022-10-11T15:53:45.456Z,20.02
2022-10-11T15:56:19.375Z,19.79
2022-10-11T15:58:46.273Z,19.53
2022-10-11T16:01:18.786Z,19.29
2022-10-11T16:03:47.722Z,19.06
2022-10-11T16:06:15.377Z,18.85
2022-10-11T16:08:42.073Z,18.63
2022-10-11T16:11:10.135Z,18.44
2022-10-11T16:13:37.513Z,18.24
2022-10-11T16:16:07.065Z,18.03
2022-10-11T16:18:35.819Z,17.81
2022-10-11T16:21:09.371Z,17.59
2022-10-11T16:23:36.856Z,17.38
2022-10-11T16:26:07.137Z,17.19
2022-10-11T16:28:34.377Z,17.03
2022-10-11T16:31:05.539Z,16.84
2022-10-11T16:33:32.338Z,16.66
2022-10-11T16:36:18.961Z,16.52
2022-10-11T16:38:45.891Z,16.36
2022-10-11T16:41:12.416Z,16.25
2022-10-11T16:43:39.124Z,16.20
2022-10-11T16:46:06.026Z,16.15
2022-10-11T16:48:32.944Z,16.10
2022-10-11T16:51:07.223Z,16.05
2022-10-11T16:53:35.445Z,16.03
2022-10-11T16:56:09.990Z,15.93
2022-10-11T16:58:37.537Z,15.82
2022-10-11T17:01:08.963Z,15.76
2022-10-11T17:03:35.852Z,15.71
2022-10-11T17:06:03.082Z,15.67
2022-10-11T17:08:30.230Z,15.69
2022-10-11T17:10:57.873Z,15.63
2022-10-11T17:13:25.271Z,15.55
2022-10-11T17:15:52.262Z,15.48
2022-10-11T17:18:18.888Z,15.40
2022-10-11T17:20:51.819Z,15.35
2022-10-11T17:23:19.211Z,15.35
2022-10-11T17:25:47.371Z,15.34
2022-10-11T17:28:14.656Z,15.30
2022-10-11T17:30:42.461Z,15.30
2022-10-11T17:33:09.770Z,15.26
2022-10-11T17:35:36.902Z,15.29
2022-10-11T17:38:06.119Z,15.24
2022-10-11T17:40:33.229Z,15.22
2022-10-11T17:42:59.937Z,15.11
2022-10-11T17:45:26.660Z,15.08
2022-10-11T17:47:53.998Z,15.04
2022-10-11T17:50:20.839Z,15.00
2022-10-11T17:52:47.755Z,14.95
2022-10-11T17:55:14.738Z,14.90
2022-10-11T17:57:41.471Z,14.83
2022-10-11T18:00:08.877Z,14.78
2022-10-11T18:02:35.647Z,14.74
2022-10-11T18:05:03.331Z,14.70
2022-10-11T18:07:30.141Z,14.77
2022-10-11T18:09:57.062Z,14.78
2022-10-11T18:12:23.911Z,14.77
2022-10-11T18:14:51.193Z,14.80
2022-10-11T18:17:18.949Z,14.83
2022-10-11T18:19:45.672Z,14.77
2022-10-11T18:22:12.384Z,14.78
2022-10-11T18:24:39.229Z,14.68
2022-10-11T18:27:06.018Z,14.67
2022-10-11T18:29:33.188Z,14.59
2022-10-11T18:31:59.901Z,14.51
2022-10-11T18:34:26.584Z,14.43
2022-10-11T18:36:53.296Z,14.34
2022-10-11T18:39:21.812Z,14.29
2022-10-11T18:41:48.527Z,14.23
2022-10-11T18:44:16.699Z,14.17
2022-10-11T18:46:44.804Z,14.15
2022-10-11T18:49:12.363Z,14.17
2022-10-11T18:51:41.152Z,14.18
2022-10-11T18:54:12.056Z,14.12
2022-10-11T18:56:41.120Z,14.15
2022-10-11T18:59:07.958Z,14.12
2022-10-11T19:01:38.329Z,14.07
2022-10-11T19:04:06.519Z,14.02
2022-10-11T19:06:36.461Z,13.96
2022-10-11T19:09:08.553Z,13.90
2022-10-11T19:11:37.037Z,13.85
2022-10-11T19:14:07.189Z,13.80
2022-10-11T19:16:37.949Z,13.76
2022-10-11T19:19:06.597Z,13.68
2022-10-11T19:21:34.004Z,13.62
2022-10-11T19:24:01.906Z,13.52
2022-10-11T19:26:34.029Z,13.41
2022-10-11T19:29:14.761Z,13.34
2022-10-11T19:31:44.606Z,13.25
2022-10-11T19:34:12.067Z,13.26
2022-10-11T19:36:39.517Z,13.22
2022-10-11T19:39:06.506Z,13.20
2022-10-11T19:41:33.418Z,13.20
2022-10-11T19:44:00.245Z,13.18
2022-10-11T19:46:49.828Z,13.18
2022-10-11T19:49:17.869Z,13.15
2022-10-11T19:51:45.388Z,13.08
2022-10-11T19:54:14.384Z,12.97
2022-10-11T19:56:42.607Z,12.85
2022-10-11T19:59:11.163Z,12.71
2022-10-11T20:01:38.866Z,12.68
2022-10-11T20:04:07.921Z,12.62
2022-10-11T20:06:38.540Z,12.59
2022-10-11T20:09:28.627Z,12.50
2022-10-11T20:11:56.978Z,12.35
2022-10-11T20:14:23.853Z,12.35
2022-10-11T20:16:51.064Z,12.26
2022-10-11T20:19:18.924Z,12.26
2022-10-11T20:21:46.035Z,12.25
2022-10-11T20:24:12.977Z,12.26
2022-10-11T20:26:40.449Z,12.23
2022-10-11T20:29:07.656Z,12.12
2022-10-11T20:31:40.639Z,12.01
2022-10-11T20:34:07.709Z,12.00
2022-10-11T20:36:36.238Z,11.96
2022-10-11T20:39:04.644Z,11.89
2022-10-11T20:41:34.652Z,11.84
2022-10-11T20:44:03.108Z,11.80
2022-10-11T20:46:34.728Z,11.73
2022-10-11T20:49:04.463Z,11.66
2022-10-11T20:51:33.740Z,11.62
2022-10-11T20:54:02.052Z,11.55
2022-10-11T20:56:29.755Z,11.55
2022-10-11T20:58:57.990Z,11.52
2022-10-11T21:01:37.113Z,11.58
2022-10-11T21:04:05.630Z,11.58
2022-10-11T21:06:33.495Z,11.59
2022-10-11T21:09:01.082Z,11.59
2022-10-11T21:11:29.755Z,11.54
2022-10-11T21:13:57.927Z,11.56
2022-10-11T21:16:25.290Z,11.57
2022-10-11T21:18:53.612Z,11.59
2022-10-11T21:21:20.467Z,11.57
2022-10-11T21:23:47.613Z,11.65
2022-10-11T21:26:14.662Z,11.69
2022-10-11T21:28:41.407Z,11.72
2022-10-11T21:31:10.608Z,11.75
2022-10-11T21:33:38.197Z,11.75
2022-10-11T21:36:06.953Z,11.68
2022-10-11T21:38:34.636Z,11.61
2022-10-11T21:41:10.063Z,11.61
2022-10-11T21:43:38.325Z,11.53
2022-10-11T21:46:15.956Z,11.48
2022-10-11T21:48:42.788Z,11.46
2022-10-11T21:51:15.612Z,11.48
2022-10-11T21:53:42.430Z,11.47
2022-10-11T21:56:09.233Z,11.53
2022-10-11T21:58:35.936Z,11.49
2022-10-11T22:01:03.170Z,11.51
2022-10-11T22:03:29.965Z,11.56
2022-10-11T22:05:56.660Z,11.52
2022-10-11T22:08:23.385Z,11.56
2022-10-11T22:10:55.507Z,11.60
2022-10-11T22:13:22.263Z,11.59
2022-10-11T22:15:49.274Z,11.64
2022-10-11T22:18:16.561Z,11.68
2022-10-11T22:20:43.863Z,11.72
2022-10-11T22:23:11.535Z,11.73
2022-10-11T22:25:39.831Z,11.73
2022-10-11T22:28:07.167Z,11.71
2022-10-11T22:30:34.577Z,11.76
2022-10-11T22:33:01.283Z,11.80
2022-10-11T22:35:28.004Z,11.85
2022-10-11T22:37:54.704Z,11.83
2022-10-11T22:40:21.414Z,11.86
2022-10-11T22:42:48.189Z,11.85
2022-10-11T22:45:14.957Z,11.74
2022-10-11T22:47:41.680Z,11.77
2022-10-11T22:50:08.779Z,11.85
2022-10-11T22:52:35.330Z,11.90
2022-10-11T22:55:02.019Z,11.92
2022-10-11T22:57:29.632Z,11.88
2022-10-11T22:59:56.377Z,11.79
2022-10-11T23:02:23.066Z,11.73
2022-10-11T23:04:49.845Z,11.72
2022-10-11T23:07:16.543Z,11.69
2022-10-11T23:09:43.299Z,11.73
2022-10-11T23:12:09.984Z,11.75
2022-10-11T23:14:36.671Z,11.75
2022-10-11T23:17:03.363Z,11.71
2022-10-11T23:19:30.056Z,11.69
2022-10-11T23:21:56.783Z,11.72
2022-10-11T23:24:23.540Z,11.74
2022-10-11T23:26:50.275Z,11.74
2022-10-11T23:29:17.042Z,11.80
2022-10-11T23:31:44.534Z,11.83
2022-10-11T23:34:11.256Z,11.85
2022-10-11T23:36:37.986Z,11.82
2022-10-11T23:39:04.741Z,11.88
2022-10-11T23:41:31.724Z,11.87
2022-10-11T23:43:58.678Z,11.83
2022-10-11T23:46:25.706Z,11.78
2022-10-11T23:48:52.386Z,11.74
2022-10-11T23:51:19.135Z,11.69
2022-10-11T23:53:45.805Z,11.71
2022-10-11T23:56:12.636Z,11.70
2022-10-11T23:58:39.517Z,11.69
